sensor_id;sensor_type;location;lat;lon;timestamp;temperature;humidity
32366;DHT22;18837;46.832;16.838;2023-05-09T00:01:10;15.50;81.00
32366;DHT22;18837;46.832;16.838;2023-05-09T00:03:37;15.50;81.80
32366;DHT22;18837;46.832;16.838;2023-05-09T00:06:04;15.50;81.70
32366;DHT22;18837;46.832;16.838;2023-05-09T00:08:30;15.50;81.40
32366;DHT22;18837;46.832;16.838;2023-05-09T00:11:02;15.50;81.50
32366;DHT22;18837;46.832;16.838;2023-05-09T00:13:27;15.50;81.30
32366;DHT22;18837;46.832;16.838;2023-05-09T00:15:53;15.50;81.60
32366;DHT22;18837;46.832;16.838;2023-05-09T00:18:19;15.50;81.10
32366;DHT22;18837;46.832;16.838;2023-05-09T00:20:46;15.40;81.50
32366;DHT22;18837;46.832;16.838;2023-05-09T00:23:12;15.40;81.30
32366;DHT22;18837;46.832;16.838;2023-05-09T00:25:38;15.40;81.80
32366;DHT22;18837;46.832;16.838;2023-05-09T00:28:13;15.40;81.20
32366;DHT22;18837;46.832;16.838;2023-05-09T00:30:39;15.40;81.20
32366;DHT22;18837;46.832;16.838;2023-05-09T00:33:05;15.40;82.10
32366;DHT22;18837;46.832;16.838;2023-05-09T00:35:31;15.40;81.90
32366;DHT22;18837;46.832;16.838;2023-05-09T00:37:56;15.40;81.60
32366;DHT22;18837;46.832;16.838;2023-05-09T00:40:22;15.40;81.60
32366;DHT22;18837;46.832;16.838;2023-05-09T00:42:48;15.40;82.10
32366;DHT22;18837;46.832;16.838;2023-05-09T00:45:16;15.30;81.50
32366;DHT22;18837;46.832;16.838;2023-05-09T00:47:42;15.30;81.10
32366;DHT22;18837;46.832;16.838;2023-05-09T00:50:08;15.30;81.20
32366;DHT22;18837;46.832;16.838;2023-05-09T00:52:35;15.30;80.70
32366;DHT22;18837;46.832;16.838;2023-05-09T00:55:01;15.30;81.40
32366;DHT22;18837;46.832;16.838;2023-05-09T00:57:27;15.20;82.20
32366;DHT22;18837;46.832;16.838;2023-05-09T00:59:54;15.30;81.60
32366;DHT22;18837;46.832;16.838;2023-05-09T01:02:23;15.30;81.70
32366;DHT22;18837;46.832;16.838;2023-05-09T01:04:58;15.20;81.30
32366;DHT22;18837;46.832;16.838;2023-05-09T01:10:17;15.20;81.00
32366;DHT22;18837;46.832;16.838;2023-05-09T01:12:55;15.20;80.50
32366;DHT22;18837;46.832;16.838;2023-05-09T01:15:26;15.20;81.70
32366;DHT22;18837;46.832;16.838;2023-05-09T01:18:37;15.10;81.40
32366;DHT22;18837;46.832;16.838;2023-05-09T01:21:04;15.10;80.90
32366;DHT22;18837;46.832;16.838;2023-05-09T01:23:49;15.10;81.80
32366;DHT22;18837;46.832;16.838;2023-05-09T01:26:20;15.10;80.70
32366;DHT22;18837;46.832;16.838;2023-05-09T01:29:33;15.10;82.10
32366;DHT22;18837;46.832;16.838;2023-05-09T01:31:40;15.10;80.60
32366;DHT22;18837;46.832;16.838;2023-05-09T01:34:10;15.10;82.10
32366;DHT22;18837;46.832;16.838;2023-05-09T01:36:50;15.00;81.80
32366;DHT22;18837;46.832;16.838;2023-05-09T01:39:40;15.10;82.30
32366;DHT22;18837;46.832;16.838;2023-05-09T01:42:08;15.10;82.30
32366;DHT22;18837;46.832;16.838;2023-05-09T01:44:40;15.10;82.00
32366;DHT22;18837;46.832;16.838;2023-05-09T01:47:07;15.10;82.10
32366;DHT22;18837;46.832;16.838;2023-05-09T01:49:37;15.00;81.40
32366;DHT22;18837;46.832;16.838;2023-05-09T01:52:10;15.10;81.80
32366;DHT22;18837;46.832;16.838;2023-05-09T01:54:46;15.10;81.90
32366;DHT22;18837;46.832;16.838;2023-05-09T01:57:13;15.10;81.90
32366;DHT22;18837;46.832;16.838;2023-05-09T01:59:42;15.00;81.80
32366;DHT22;18837;46.832;16.838;2023-05-09T02:02:08;15.00;82.00
32366;DHT22;18837;46.832;16.838;2023-05-09T02:04:35;15.00;81.60
32366;DHT22;18837;46.832;16.838;2023-05-09T02:07:03;15.00;81.20
32366;DHT22;18837;46.832;16.838;2023-05-09T02:09:29;15.00;82.10
32366;DHT22;18837;46.832;16.838;2023-05-09T02:11:55;15.00;81.60
32366;DHT22;18837;46.832;16.838;2023-05-09T02:14:24;15.00;82.20
32366;DHT22;18837;46.832;16.838;2023-05-09T02:16:50;15.00;82.00
32366;DHT22;18837;46.832;16.838;2023-05-09T02:19:16;15.00;81.80
32366;DHT22;18837;46.832;16.838;2023-05-09T02:21:42;15.00;82.10
32366;DHT22;18837;46.832;16.838;2023-05-09T02:24:08;15.00;82.40
32366;DHT22;18837;46.832;16.838;2023-05-09T02:26:34;15.00;81.30
32366;DHT22;18837;46.832;16.838;2023-05-09T02:29:01;15.00;81.50
32366;DHT22;18837;46.832;16.838;2023-05-09T02:31:28;15.00;81.90
32366;DHT22;18837;46.832;16.838;2023-05-09T02:33:55;14.90;81.70
32366;DHT22;18837;46.832;16.838;2023-05-09T02:36:22;14.90;81.70
32366;DHT22;18837;46.832;16.838;2023-05-09T02:38:49;14.90;81.90
32366;DHT22;18837;46.832;16.838;2023-05-09T02:41:16;14.90;81.80
32366;DHT22;18837;46.832;16.838;2023-05-09T02:43:42;14.90;82.00
32366;DHT22;18837;46.832;16.838;2023-05-09T02:46:08;14.90;81.80
32366;DHT22;18837;46.832;16.838;2023-05-09T02:48:38;14.90;82.00
32366;DHT22;18837;46.832;16.838;2023-05-09T02:51:04;14.90;81.70
32366;DHT22;18837;46.832;16.838;2023-05-09T02:53:30;14.90;81.80
32366;DHT22;18837;46.832;16.838;2023-05-09T02:55:55;14.90;81.80
32366;DHT22;18837;46.832;16.838;2023-05-09T02:58:21;14.80;81.40
32366;DHT22;18837;46.832;16.838;2023-05-09T03:00:47;14.80;81.50
32366;DHT22;18837;46.832;16.838;2023-05-09T03:03:13;14.80;82.00
32366;DHT22;18837;46.832;16.838;2023-05-09T03:05:38;14.80;82.30
32366;DHT22;18837;46.832;16.838;2023-05-09T03:08:04;14.80;81.70
32366;DHT22;18837;46.832;16.838;2023-05-09T03:10:30;14.80;81.90
32366;DHT22;18837;46.832;16.838;2023-05-09T03:12:55;14.80;82.10
32366;DHT22;18837;46.832;16.838;2023-05-09T03:15:21;14.80;82.10
32366;DHT22;18837;46.832;16.838;2023-05-09T03:17:47;14.80;82.20
32366;DHT22;18837;46.832;16.838;2023-05-09T03:20:14;14.70;82.00
32366;DHT22;18837;46.832;16.838;2023-05-09T03:22:41;14.70;81.50
32366;DHT22;18837;46.832;16.838;2023-05-09T03:25:09;14.70;81.80
32366;DHT22;18837;46.832;16.838;2023-05-09T03:27:35;14.70;81.70
32366;DHT22;18837;46.832;16.838;2023-05-09T03:30:00;14.70;81.90
32366;DHT22;18837;46.832;16.838;2023-05-09T03:32:26;14.70;81.70
32366;DHT22;18837;46.832;16.838;2023-05-09T03:34:52;14.60;81.60
32366;DHT22;18837;46.832;16.838;2023-05-09T03:37:19;14.70;82.30
32366;DHT22;18837;46.832;16.838;2023-05-09T03:39:44;14.60;82.20
32366;DHT22;18837;46.832;16.838;2023-05-09T03:42:10;14.60;82.00
32366;DHT22;18837;46.832;16.838;2023-05-09T03:44:36;14.60;82.10
32366;DHT22;18837;46.832;16.838;2023-05-09T03:47:02;14.60;82.20
32366;DHT22;18837;46.832;16.838;2023-05-09T03:49:27;14.60;81.90
32366;DHT22;18837;46.832;16.838;2023-05-09T03:51:53;14.60;81.80
32366;DHT22;18837;46.832;16.838;2023-05-09T03:54:19;14.60;82.00
32366;DHT22;18837;46.832;16.838;2023-05-09T03:56:50;14.60;81.90
32366;DHT22;18837;46.832;16.838;2023-05-09T03:59:15;14.60;82.20
32366;DHT22;18837;46.832;16.838;2023-05-09T04:01:41;14.60;81.90
32366;DHT22;18837;46.832;16.838;2023-05-09T04:04:07;14.50;82.00
32366;DHT22;18837;46.832;16.838;2023-05-09T04:06:33;14.50;81.90
32366;DHT22;18837;46.832;16.838;2023-05-09T04:08:58;14.50;82.00
32366;DHT22;18837;46.832;16.838;2023-05-09T04:11:25;14.50;81.90
32366;DHT22;18837;46.832;16.838;2023-05-09T04:13:51;14.50;82.20
32366;DHT22;18837;46.832;16.838;2023-05-09T04:16:17;14.50;82.10
32366;DHT22;18837;46.832;16.838;2023-05-09T04:18:42;14.50;81.90
32366;DHT22;18837;46.832;16.838;2023-05-09T04:21:08;14.50;82.30
32366;DHT22;18837;46.832;16.838;2023-05-09T04:23:34;14.50;82.00
32366;DHT22;18837;46.832;16.838;2023-05-09T04:25:59;14.50;82.00
32366;DHT22;18837;46.832;16.838;2023-05-09T04:28:30;14.50;82.00
32366;DHT22;18837;46.832;16.838;2023-05-09T04:31:01;14.50;82.00
32366;DHT22;18837;46.832;16.838;2023-05-09T04:33:27;14.50;82.10
32366;DHT22;18837;46.832;16.838;2023-05-09T04:35:53;14.50;81.90
32366;DHT22;18837;46.832;16.838;2023-05-09T04:38:19;14.50;82.10
32366;DHT22;18837;46.832;16.838;2023-05-09T04:40:45;14.50;82.30
32366;DHT22;18837;46.832;16.838;2023-05-09T04:43:11;14.50;81.60
32366;DHT22;18837;46.832;16.838;2023-05-09T04:45:37;14.50;81.90
32366;DHT22;18837;46.832;16.838;2023-05-09T04:48:08;14.50;82.00
32366;DHT22;18837;46.832;16.838;2023-05-09T04:50:34;14.50;82.20
32366;DHT22;18837;46.832;16.838;2023-05-09T04:53:00;14.50;81.90
32366;DHT22;18837;46.832;16.838;2023-05-09T04:55:26;14.50;82.00
32366;DHT22;18837;46.832;16.838;2023-05-09T04:57:52;14.50;82.10
32366;DHT22;18837;46.832;16.838;2023-05-09T05:00:18;14.50;81.50
32366;DHT22;18837;46.832;16.838;2023-05-09T05:02:49;14.50;81.70
32366;DHT22;18837;46.832;16.838;2023-05-09T05:05:15;14.50;81.20
32366;DHT22;18837;46.832;16.838;2023-05-09T05:07:40;14.50;82.10
32366;DHT22;18837;46.832;16.838;2023-05-09T05:10:07;14.50;82.10
32366;DHT22;18837;46.832;16.838;2023-05-09T05:12:33;14.50;82.00
32366;DHT22;18837;46.832;16.838;2023-05-09T05:14:59;14.50;82.00
32366;DHT22;18837;46.832;16.838;2023-05-09T05:17:25;14.50;82.00
32366;DHT22;18837;46.832;16.838;2023-05-09T05:19:54;14.50;82.30
32366;DHT22;18837;46.832;16.838;2023-05-09T05:22:20;14.50;81.60
32366;DHT22;18837;46.832;16.838;2023-05-09T05:24:46;14.50;82.20
32366;DHT22;18837;46.832;16.838;2023-05-09T05:27:11;14.50;81.90
32366;DHT22;18837;46.832;16.838;2023-05-09T05:29:38;14.50;81.90
32366;DHT22;18837;46.832;16.838;2023-05-09T05:32:04;14.50;81.90
32366;DHT22;18837;46.832;16.838;2023-05-09T05:34:30;14.50;81.80
32366;DHT22;18837;46.832;16.838;2023-05-09T05:37:01;14.50;82.10
32366;DHT22;18837;46.832;16.838;2023-05-09T05:39:26;14.50;81.70
32366;DHT22;18837;46.832;16.838;2023-05-09T05:41:52;14.50;82.00
32366;DHT22;18837;46.832;16.838;2023-05-09T05:44:18;14.60;82.10
32366;DHT22;18837;46.832;16.838;2023-05-09T05:46:44;14.50;81.90
32366;DHT22;18837;46.832;16.838;2023-05-09T05:49:10;14.60;81.00
32366;DHT22;18837;46.832;16.838;2023-05-09T05:51:35;14.60;81.50
32366;DHT22;18837;46.832;16.838;2023-05-09T05:54:15;14.60;81.40
32366;DHT22;18837;46.832;16.838;2023-05-09T05:56:42;14.60;81.60
32366;DHT22;18837;46.832;16.838;2023-05-09T05:59:08;14.60;81.80
32366;DHT22;18837;46.832;16.838;2023-05-09T06:01:33;14.60;81.70
32366;DHT22;18837;46.832;16.838;2023-05-09T06:03:59;14.60;82.00
32366;DHT22;18837;46.832;16.838;2023-05-09T06:06:26;14.60;81.80
32366;DHT22;18837;46.832;16.838;2023-05-09T06:08:52;14.50;79.80
32366;DHT22;18837;46.832;16.838;2023-05-09T06:11:18;14.50;80.30
32366;DHT22;18837;46.832;16.838;2023-05-09T06:13:44;14.50;80.40
32366;DHT22;18837;46.832;16.838;2023-05-09T06:16:10;14.50;80.60
32366;DHT22;18837;46.832;16.838;2023-05-09T06:18:36;14.50;80.90
32366;DHT22;18837;46.832;16.838;2023-05-09T06:21:07;14.50;79.60
32366;DHT22;18837;46.832;16.838;2023-05-09T06:23:33;14.40;80.70
32366;DHT22;18837;46.832;16.838;2023-05-09T06:26:01;14.50;80.90
32366;DHT22;18837;46.832;16.838;2023-05-09T06:28:27;14.50;81.10
32366;DHT22;18837;46.832;16.838;2023-05-09T06:30:53;14.50;81.10
32366;DHT22;18837;46.832;16.838;2023-05-09T06:33:18;14.50;81.10
32366;DHT22;18837;46.832;16.838;2023-05-09T06:35:44;14.50;81.10
32366;DHT22;18837;46.832;16.838;2023-05-09T06:38:10;14.50;81.10
32366;DHT22;18837;46.832;16.838;2023-05-09T06:40:36;14.50;81.20
32366;DHT22;18837;46.832;16.838;2023-05-09T06:43:02;14.50;81.40
32366;DHT22;18837;46.832;16.838;2023-05-09T06:45:27;14.60;81.20
32366;DHT22;18837;46.832;16.838;2023-05-09T06:47:55;14.60;82.10
32366;DHT22;18837;46.832;16.838;2023-05-09T06:50:20;14.60;81.60
32366;DHT22;18837;46.832;16.838;2023-05-09T06:52:46;14.60;81.90
32366;DHT22;18837;46.832;16.838;2023-05-09T06:55:12;14.60;81.70
32366;DHT22;18837;46.832;16.838;2023-05-09T06:57:38;14.60;83.30
32366;DHT22;18837;46.832;16.838;2023-05-09T07:00:07;14.70;83.10
32366;DHT22;18837;46.832;16.838;2023-05-09T07:02:37;14.70;81.60
32366;DHT22;18837;46.832;16.838;2023-05-09T07:05:11;14.70;81.90
32366;DHT22;18837;46.832;16.838;2023-05-09T07:07:37;14.70;82.20
32366;DHT22;18837;46.832;16.838;2023-05-09T07:10:02;14.70;82.10
32366;DHT22;18837;46.832;16.838;2023-05-09T07:12:32;14.70;81.70
32366;DHT22;18837;46.832;16.838;2023-05-09T07:14:58;14.70;81.90
32366;DHT22;18837;46.832;16.838;2023-05-09T07:17:23;14.70;82.10
32366;DHT22;18837;46.832;16.838;2023-05-09T07:19:50;14.70;82.10
32366;DHT22;18837;46.832;16.838;2023-05-09T07:22:16;14.80;82.20
32366;DHT22;18837;46.832;16.838;2023-05-09T07:24:41;14.80;82.00
32366;DHT22;18837;46.832;16.838;2023-05-09T07:27:08;14.80;81.90
32366;DHT22;18837;46.832;16.838;2023-05-09T07:29:34;14.80;82.00
32366;DHT22;18837;46.832;16.838;2023-05-09T07:32:00;14.80;81.50
32366;DHT22;18837;46.832;16.838;2023-05-09T07:34:26;14.80;82.10
32366;DHT22;18837;46.832;16.838;2023-05-09T07:36:53;14.80;81.80
32366;DHT22;18837;46.832;16.838;2023-05-09T07:39:20;14.90;81.90
32366;DHT22;18837;46.832;16.838;2023-05-09T07:41:45;14.90;81.60
32366;DHT22;18837;46.832;16.838;2023-05-09T07:44:11;14.90;81.80
32366;DHT22;18837;46.832;16.838;2023-05-09T07:46:37;14.90;81.60
32366;DHT22;18837;46.832;16.838;2023-05-09T07:49:05;14.90;81.50
32366;DHT22;18837;46.832;16.838;2023-05-09T07:51:30;15.00;81.90
32366;DHT22;18837;46.832;16.838;2023-05-09T07:53:56;15.00;81.70
32366;DHT22;18837;46.832;16.838;2023-05-09T07:56:27;15.00;81.50
32366;DHT22;18837;46.832;16.838;2023-05-09T07:58:53;15.00;81.60
32366;DHT22;18837;46.832;16.838;2023-05-09T08:01:19;15.00;81.50
32366;DHT22;18837;46.832;16.838;2023-05-09T08:03:44;15.10;81.30
32366;DHT22;18837;46.832;16.838;2023-05-09T08:06:10;15.10;80.90
32366;DHT22;18837;46.832;16.838;2023-05-09T08:08:36;15.10;81.10
32366;DHT22;18837;46.832;16.838;2023-05-09T08:11:07;15.10;80.70
32366;DHT22;18837;46.832;16.838;2023-05-09T08:13:38;15.20;81.00
32366;DHT22;18837;46.832;16.838;2023-05-09T08:16:03;15.20;80.70
32366;DHT22;18837;46.832;16.838;2023-05-09T08:18:30;15.20;80.40
32366;DHT22;18837;46.832;16.838;2023-05-09T08:20:55;15.20;80.60
32366;DHT22;18837;46.832;16.838;2023-05-09T08:23:23;15.20;80.50
32366;DHT22;18837;46.832;16.838;2023-05-09T08:25:52;15.20;80.70
32366;DHT22;18837;46.832;16.838;2023-05-09T08:28:19;15.20;80.80
32366;DHT22;18837;46.832;16.838;2023-05-09T08:30:44;15.30;80.50
32366;DHT22;18837;46.832;16.838;2023-05-09T08:33:10;15.30;80.30
32366;DHT22;18837;46.832;16.838;2023-05-09T08:35:36;15.40;80.20
32366;DHT22;18837;46.832;16.838;2023-05-09T08:38:01;15.40;80.10
32366;DHT22;18837;46.832;16.838;2023-05-09T08:40:28;15.40;79.90
32366;DHT22;18837;46.832;16.838;2023-05-09T08:42:54;15.50;79.80
32366;DHT22;18837;46.832;16.838;2023-05-09T08:45:30;15.60;79.80
32366;DHT22;18837;46.832;16.838;2023-05-09T08:47:58;15.60;79.30
32366;DHT22;18837;46.832;16.838;2023-05-09T08:50:24;15.70;79.10
32366;DHT22;18837;46.832;16.838;2023-05-09T08:52:50;15.70;80.20
32366;DHT22;18837;46.832;16.838;2023-05-09T08:55:17;15.80;81.40
32366;DHT22;18837;46.832;16.838;2023-05-09T08:57:43;15.90;81.80
32366;DHT22;18837;46.832;16.838;2023-05-09T09:00:11;15.90;82.90
32366;DHT22;18837;46.832;16.838;2023-05-09T09:02:40;16.00;82.80
32366;DHT22;18837;46.832;16.838;2023-05-09T09:05:07;16.10;83.10
32366;DHT22;18837;46.832;16.838;2023-05-09T09:07:33;16.20;83.30
32366;DHT22;18837;46.832;16.838;2023-05-09T09:10:02;16.20;83.20
32366;DHT22;18837;46.832;16.838;2023-05-09T09:12:28;16.30;81.80
32366;DHT22;18837;46.832;16.838;2023-05-09T09:15:02;16.30;81.90
32366;DHT22;18837;46.832;16.838;2023-05-09T09:17:29;16.40;82.60
32366;DHT22;18837;46.832;16.838;2023-05-09T09:20:02;16.40;82.40
32366;DHT22;18837;46.832;16.838;2023-05-09T09:23:07;16.50;83.40
32366;DHT22;18837;46.832;16.838;2023-05-09T09:25:35;16.50;83.20
32366;DHT22;18837;46.832;16.838;2023-05-09T09:28:00;16.50;82.40
32366;DHT22;18837;46.832;16.838;2023-05-09T09:30:26;16.50;82.10
32366;DHT22;18837;46.832;16.838;2023-05-09T09:32:53;16.50;82.80
32366;DHT22;18837;46.832;16.838;2023-05-09T09:35:19;16.50;83.90
32366;DHT22;18837;46.832;16.838;2023-05-09T09:37:46;16.60;83.50
32366;DHT22;18837;46.832;16.838;2023-05-09T09:40:12;16.60;84.30
32366;DHT22;18837;46.832;16.838;2023-05-09T09:42:43;16.60;83.50
32366;DHT22;18837;46.832;16.838;2023-05-09T09:45:10;16.60;83.10
32366;DHT22;18837;46.832;16.838;2023-05-09T09:47:36;16.60;82.10
32366;DHT22;18837;46.832;16.838;2023-05-09T09:50:13;16.60;82.50
32366;DHT22;18837;46.832;16.838;2023-05-09T09:55:33;16.50;81.20
32366;DHT22;18837;46.832;16.838;2023-05-09T09:58:23;16.50;81.20
32366;DHT22;18837;46.832;16.838;2023-05-09T10:01:12;16.50;81.10
32366;DHT22;18837;46.832;16.838;2023-05-09T10:03:45;16.50;81.70
32366;DHT22;18837;46.832;16.838;2023-05-09T10:06:13;16.50;82.20
32366;DHT22;18837;46.832;16.838;2023-05-09T10:08:40;16.50;82.10
32366;DHT22;18837;46.832;16.838;2023-05-09T10:11:06;16.50;82.20
32366;DHT22;18837;46.832;16.838;2023-05-09T10:13:44;16.50;81.80
32366;DHT22;18837;46.832;16.838;2023-05-09T10:16:11;16.50;82.20
32366;DHT22;18837;46.832;16.838;2023-05-09T10:18:38;16.50;82.70
32366;DHT22;18837;46.832;16.838;2023-05-09T10:21:07;16.60;82.40
32366;DHT22;18837;46.832;16.838;2023-05-09T10:23:36;16.60;81.50
32366;DHT22;18837;46.832;16.838;2023-05-09T10:26:20;16.70;81.10
32366;DHT22;18837;46.832;16.838;2023-05-09T10:29:06;16.80;80.30
32366;DHT22;18837;46.832;16.838;2023-05-09T10:31:36;16.90;81.50
32366;DHT22;18837;46.832;16.838;2023-05-09T10:34:25;17.00;80.90
32366;DHT22;18837;46.832;16.838;2023-05-09T10:36:54;17.10;80.30
32366;DHT22;18837;46.832;16.838;2023-05-09T10:39:23;17.20;80.60
32366;DHT22;18837;46.832;16.838;2023-05-09T10:41:50;17.30;81.10
32366;DHT22;18837;46.832;16.838;2023-05-09T10:44:16;17.30;80.70
32366;DHT22;18837;46.832;16.838;2023-05-09T10:46:43;17.30;79.40
32366;DHT22;18837;46.832;16.838;2023-05-09T10:49:15;17.40;80.20
32366;DHT22;18837;46.832;16.838;2023-05-09T10:51:41;17.40;79.20
32366;DHT22;18837;46.832;16.838;2023-05-09T10:54:13;17.50;78.80
32366;DHT22;18837;46.832;16.838;2023-05-09T10:56:40;17.50;78.00
32366;DHT22;18837;46.832;16.838;2023-05-09T10:59:05;17.50;78.10
32366;DHT22;18837;46.832;16.838;2023-05-09T11:01:56;17.50;78.60
32366;DHT22;18837;46.832;16.838;2023-05-09T11:04:44;17.50;78.80
32366;DHT22;18837;46.832;16.838;2023-05-09T11:07:31;17.40;79.60
32366;DHT22;18837;46.832;16.838;2023-05-09T11:10:07;17.40;78.60
32366;DHT22;18837;46.832;16.838;2023-05-09T11:12:34;17.40;79.90
32366;DHT22;18837;46.832;16.838;2023-05-09T11:15:17;17.40;79.90
32366;DHT22;18837;46.832;16.838;2023-05-09T11:17:43;17.40;80.50
32366;DHT22;18837;46.832;16.838;2023-05-09T11:20:09;17.40;81.20
32366;DHT22;18837;46.832;16.838;2023-05-09T11:22:44;17.40;81.80
32366;DHT22;18837;46.832;16.838;2023-05-09T11:25:13;17.40;81.40
32366;DHT22;18837;46.832;16.838;2023-05-09T11:27:43;17.40;81.60
32366;DHT22;18837;46.832;16.838;2023-05-09T11:30:17;17.50;83.40
32366;DHT22;18837;46.832;16.838;2023-05-09T11:32:54;17.40;83.30
32366;DHT22;18837;46.832;16.838;2023-05-09T11:35:21;17.50;82.30
32366;DHT22;18837;46.832;16.838;2023-05-09T11:37:57;17.50;82.90
32366;DHT22;18837;46.832;16.838;2023-05-09T11:40:38;17.60;82.20
32366;DHT22;18837;46.832;16.838;2023-05-09T11:43:17;17.60;81.20
32366;DHT22;18837;46.832;16.838;2023-05-09T11:45:45;17.60;79.90
32366;DHT22;18837;46.832;16.838;2023-05-09T11:48:11;17.60;77.70
32366;DHT22;18837;46.832;16.838;2023-05-09T11:50:37;17.70;78.40
32366;DHT22;18837;46.832;16.838;2023-05-09T11:53:03;17.70;78.90
32366;DHT22;18837;46.832;16.838;2023-05-09T11:55:28;17.80;78.50
32366;DHT22;18837;46.832;16.838;2023-05-09T11:57:54;17.80;78.50
32366;DHT22;18837;46.832;16.838;2023-05-09T12:02:55;17.80;77.50
32366;DHT22;18837;46.832;16.838;2023-05-09T12:05:22;17.80;78.10
32366;DHT22;18837;46.832;16.838;2023-05-09T12:07:48;17.80;79.00
32366;DHT22;18837;46.832;16.838;2023-05-09T12:10:15;17.90;78.00
32366;DHT22;18837;46.832;16.838;2023-05-09T12:12:50;17.90;78.10
32366;DHT22;18837;46.832;16.838;2023-05-09T12:15:34;18.00;80.50
32366;DHT22;18837;46.832;16.838;2023-05-09T12:18:05;18.00;80.20
32366;DHT22;18837;46.832;16.838;2023-05-09T12:20:51;18.10;79.40
32366;DHT22;18837;46.832;16.838;2023-05-09T12:23:18;18.10;79.00
32366;DHT22;18837;46.832;16.838;2023-05-09T12:25:54;18.10;78.00
32366;DHT22;18837;46.832;16.838;2023-05-09T12:28:22;18.10;76.80
32366;DHT22;18837;46.832;16.838;2023-05-09T12:30:49;18.10;76.70
32366;DHT22;18837;46.832;16.838;2023-05-09T12:33:21;18.20;75.80
32366;DHT22;18837;46.832;16.838;2023-05-09T12:35:52;18.20;77.40
32366;DHT22;18837;46.832;16.838;2023-05-09T12:38:25;18.10;76.30
32366;DHT22;18837;46.832;16.838;2023-05-09T12:41:05;18.10;77.30
32366;DHT22;18837;46.832;16.838;2023-05-09T12:43:37;18.10;77.50
32366;DHT22;18837;46.832;16.838;2023-05-09T12:46:06;18.10;75.80
32366;DHT22;18837;46.832;16.838;2023-05-09T12:49:00;18.10;76.60
32366;DHT22;18837;46.832;16.838;2023-05-09T12:51:50;18.10;75.20
32366;DHT22;18837;46.832;16.838;2023-05-09T12:54:23;18.10;76.20
32366;DHT22;18837;46.832;16.838;2023-05-09T12:56:50;18.10;76.10
32366;DHT22;18837;46.832;16.838;2023-05-09T12:59:27;18.10;76.50
32366;DHT22;18837;46.832;16.838;2023-05-09T13:01:57;18.10;76.20
32366;DHT22;18837;46.832;16.838;2023-05-09T13:04:25;18.10;76.40
32366;DHT22;18837;46.832;16.838;2023-05-09T13:06:57;18.10;76.80
32366;DHT22;18837;46.832;16.838;2023-05-09T13:09:25;18.10;75.90
32366;DHT22;18837;46.832;16.838;2023-05-09T13:11:52;18.10;77.60
32366;DHT22;18837;46.832;16.838;2023-05-09T13:14:22;18.10;77.70
32366;DHT22;18837;46.832;16.838;2023-05-09T13:16:48;18.10;77.80
32366;DHT22;18837;46.832;16.838;2023-05-09T13:19:14;18.10;78.10
32366;DHT22;18837;46.832;16.838;2023-05-09T13:21:58;18.10;78.80
32366;DHT22;18837;46.832;16.838;2023-05-09T13:24:36;18.20;78.30
32366;DHT22;18837;46.832;16.838;2023-05-09T13:27:07;18.20;80.20
32366;DHT22;18837;46.832;16.838;2023-05-09T13:29:35;18.30;79.60
32366;DHT22;18837;46.832;16.838;2023-05-09T13:32:01;18.30;79.40
32366;DHT22;18837;46.832;16.838;2023-05-09T13:34:28;18.40;79.50
32366;DHT22;18837;46.832;16.838;2023-05-09T13:36:55;18.50;77.70
32366;DHT22;18837;46.832;16.838;2023-05-09T13:39:20;18.60;78.30
32366;DHT22;18837;46.832;16.838;2023-05-09T13:42:11;18.70;79.10
32366;DHT22;18837;46.832;16.838;2023-05-09T13:44:37;18.80;78.10
32366;DHT22;18837;46.832;16.838;2023-05-09T13:47:03;18.90;78.00
32366;DHT22;18837;46.832;16.838;2023-05-09T13:49:32;19.00;80.50
32366;DHT22;18837;46.832;16.838;2023-05-09T13:51:58;19.00;79.50
32366;DHT22;18837;46.832;16.838;2023-05-09T13:54:24;19.10;76.40
32366;DHT22;18837;46.832;16.838;2023-05-09T13:57:11;19.20;73.30
32366;DHT22;18837;46.832;16.838;2023-05-09T13:59:55;19.20;72.70
32366;DHT22;18837;46.832;16.838;2023-05-09T14:02:25;19.20;73.60
32366;DHT22;18837;46.832;16.838;2023-05-09T14:04:50;19.20;73.90
32366;DHT22;18837;46.832;16.838;2023-05-09T14:07:16;19.30;73.90
32366;DHT22;18837;46.832;16.838;2023-05-09T14:09:42;19.30;74.30
32366;DHT22;18837;46.832;16.838;2023-05-09T14:12:08;19.30;73.30
32366;DHT22;18837;46.832;16.838;2023-05-09T14:14:34;19.20;73.10
32366;DHT22;18837;46.832;16.838;2023-05-09T14:17:05;19.20;74.70
32366;DHT22;18837;46.832;16.838;2023-05-09T14:19:32;19.10;72.60
32366;DHT22;18837;46.832;16.838;2023-05-09T14:21:58;19.10;71.90
32366;DHT22;18837;46.832;16.838;2023-05-09T14:24:24;19.00;73.50
32366;DHT22;18837;46.832;16.838;2023-05-09T14:26:50;19.00;72.60
32366;DHT22;18837;46.832;16.838;2023-05-09T14:29:16;18.90;73.70
32366;DHT22;18837;46.832;16.838;2023-05-09T14:31:48;18.90;75.00
32366;DHT22;18837;46.832;16.838;2023-05-09T14:34:29;18.80;73.00
32366;DHT22;18837;46.832;16.838;2023-05-09T14:36:55;18.90;73.80
32366;DHT22;18837;46.832;16.838;2023-05-09T14:39:20;18.90;75.80
32366;DHT22;18837;46.832;16.838;2023-05-09T14:41:46;18.90;74.30
32366;DHT22;18837;46.832;16.838;2023-05-09T14:44:14;19.00;72.60
32366;DHT22;18837;46.832;16.838;2023-05-09T14:46:40;19.10;73.70
32366;DHT22;18837;46.832;16.838;2023-05-09T14:49:06;19.10;74.70
32366;DHT22;18837;46.832;16.838;2023-05-09T14:51:37;19.20;75.40
32366;DHT22;18837;46.832;16.838;2023-05-09T14:54:03;19.30;76.20
32366;DHT22;18837;46.832;16.838;2023-05-09T14:56:28;19.30;75.50
32366;DHT22;18837;46.832;16.838;2023-05-09T14:58:54;19.40;76.40
32366;DHT22;18837;46.832;16.838;2023-05-09T15:01:20;19.50;76.10
32366;DHT22;18837;46.832;16.838;2023-05-09T15:03:46;19.40;73.90
32366;DHT22;18837;46.832;16.838;2023-05-09T15:06:35;19.30;72.20
32366;DHT22;18837;46.832;16.838;2023-05-09T15:09:25;19.30;71.60
32366;DHT22;18837;46.832;16.838;2023-05-09T15:11:52;19.30;71.30
32366;DHT22;18837;46.832;16.838;2023-05-09T15:14:18;19.30;71.00
32366;DHT22;18837;46.832;16.838;2023-05-09T15:16:43;19.30;72.30
32366;DHT22;18837;46.832;16.838;2023-05-09T15:19:09;19.20;73.90
32366;DHT22;18837;46.832;16.838;2023-05-09T15:21:37;19.20;72.80
32366;DHT22;18837;46.832;16.838;2023-05-09T15:24:03;19.20;71.20
32366;DHT22;18837;46.832;16.838;2023-05-09T15:26:41;19.10;71.40
32366;DHT22;18837;46.832;16.838;2023-05-09T15:29:07;19.00;71.80
32366;DHT22;18837;46.832;16.838;2023-05-09T15:31:34;19.00;72.50
32366;DHT22;18837;46.832;16.838;2023-05-09T15:34:00;18.90;72.80